createdAt,value
2023-04-03T00:01:21.488Z,82.57
2023-04-03T00:03:49.538Z,82.07
2023-04-03T00:06:17.617Z,81.40
2023-04-03T00:08:45.727Z,81.27
2023-04-03T00:11:14.192Z,81.22
2023-04-03T00:13:42.266Z,81.60
2023-04-03T00:16:11.834Z,81.92
2023-04-03T00:18:41.239Z,82.07
2023-04-03T00:21:11.500Z,81.39
2023-04-03T00:23:39.526Z,81.46
2023-04-03T00:26:07.679Z,81.62
2023-04-03T00:28:35.697Z,81.64
2023-04-03T00:31:03.917Z,81.25
2023-04-03T00:33:32.009Z,81.37
2023-04-03T00:36:00.323Z,81.58
2023-04-03T00:38:29.754Z,81.90
2023-04-03T00:40:57.776Z,81.66
2023-04-03T00:43:27.685Z,81.45
2023-04-03T00:45:58.179Z,81.71
2023-04-03T00:48:42.991Z,81.06
2023-04-03T00:51:16.054Z,80.67
2023-04-03T00:54:06.102Z,81.07
2023-04-03T00:56:34.245Z,80.86
2023-04-03T00:59:04.960Z,80.69
2023-04-03T01:01:33.285Z,80.69
2023-04-03T01:04:07.080Z,80.00
2023-04-03T01:06:38.389Z,79.51
2023-04-03T01:09:08.905Z,80.01
2023-04-03T01:11:37.243Z,80.13
2023-04-03T01:14:07.132Z,80.51
2023-04-03T01:16:36.059Z,80.31
2023-04-03T01:19:06.816Z,80.47
2023-04-03T01:21:55.192Z,80.49
2023-04-03T01:24:33.587Z,80.44
2023-04-03T01:27:05.006Z,80.87
2023-04-03T01:29:33.762Z,80.44
2023-04-03T01:32:03.293Z,80.33
2023-04-03T01:34:31.818Z,79.53
2023-04-03T01:37:00.490Z,79.72
2023-04-03T01:39:28.921Z,79.80
2023-04-03T01:41:57.241Z,79.62
2023-04-03T01:44:30.562Z,79.64
2023-04-03T01:46:58.919Z,79.11
2023-04-03T01:49:28.587Z,79.58
2023-04-03T01:51:57.073Z,79.63
2023-04-03T01:54:25.411Z,79.52
2023-04-03T01:56:53.509Z,79.73
2023-04-03T01:59:22.017Z,79.52
2023-04-03T02:01:50.128Z,79.21
2023-04-03T02:04:18.099Z,78.72
2023-04-03T02:06:46.420Z,79.03
2023-04-03T02:09:14.634Z,78.46
2023-04-03T02:11:42.730Z,78.81
2023-04-03T02:14:11.478Z,78.55
2023-04-03T02:16:39.541Z,78.94
2023-04-03T02:19:07.647Z,78.89
2023-04-03T02:21:36.120Z,79.64
2023-04-03T02:24:04.343Z,79.42
2023-04-03T02:26:32.959Z,79.41
2023-04-03T02:29:01.863Z,79.20
2023-04-03T02:31:30.816Z,79.33
2023-04-03T02:34:01.144Z,79.24
2023-04-03T02:36:31.745Z,78.95
2023-04-03T02:39:01.762Z,79.07
2023-04-03T02:41:35.878Z,79.12
2023-04-03T02:44:07.163Z,78.91
2023-04-03T02:46:35.420Z,78.42
2023-04-03T02:49:04.285Z,78.46
2023-04-03T02:51:32.753Z,78.65
2023-04-03T02:54:01.756Z,78.81
2023-04-03T02:56:31.609Z,78.74
2023-04-03T02:59:00.130Z,78.35
2023-04-03T03:01:32.531Z,77.99
2023-04-03T03:04:01.508Z,78.27
2023-04-03T03:06:29.544Z,78.32
2023-04-03T03:08:57.890Z,78.22
2023-04-03T03:11:26.654Z,77.97
2023-04-03T03:13:54.753Z,77.97
2023-04-03T03:16:22.815Z,77.66
2023-04-03T03:18:51.368Z,77.89
2023-04-03T03:21:20.019Z,77.72
2023-04-03T03:23:47.924Z,77.75
2023-04-03T03:26:16.618Z,78.00
2023-04-03T03:28:44.572Z,78.04
2023-04-03T03:31:13.360Z,77.96
2023-04-03T03:33:42.028Z,78.02
2023-04-03T03:36:10.030Z,78.19
2023-04-03T03:38:38.698Z,78.15
2023-04-03T03:41:07.261Z,77.74
2023-04-03T03:43:36.360Z,78.15
2023-04-03T03:46:05.273Z,78.12
2023-04-03T03:48:33.540Z,78.08
2023-04-03T03:51:01.644Z,78.52
2023-04-03T03:53:32.567Z,78.40
2023-04-03T03:56:05.049Z,78.60
2023-04-03T03:58:33.959Z,78.28
2023-04-03T04:01:03.535Z,78.39
2023-04-03T04:03:32.533Z,78.46
2023-04-03T04:06:01.245Z,78.07
2023-04-03T04:08:29.282Z,78.08
2023-04-03T04:10:57.688Z,78.29
2023-04-03T04:13:25.798Z,78.43
2023-04-03T04:15:53.855Z,78.43
2023-04-03T04:18:23.853Z,78.48
2023-04-03T04:20:52.278Z,78.41
2023-04-03T04:23:20.768Z,78.18
2023-04-03T04:25:50.048Z,78.36
2023-04-03T04:28:18.765Z,78.54
2023-04-03T04:30:47.883Z,78.61
2023-04-03T04:33:17.537Z,78.53
2023-04-03T04:35:49.691Z,78.58
2023-04-03T04:38:18.503Z,78.14
2023-04-03T04:40:48.096Z,78.27
2023-04-03T04:43:16.557Z,78.49
2023-04-03T04:45:45.726Z,78.63
2023-04-03T04:48:14.095Z,78.31
2023-04-03T04:50:42.128Z,77.98
2023-04-03T04:53:10.316Z,78.22
2023-04-03T04:55:38.884Z,78.36
2023-04-03T04:58:07.254Z,78.52
2023-04-03T05:00:36.857Z,78.47
2023-04-03T05:03:05.174Z,78.66
2023-04-03T05:05:33.361Z,78.67
2023-04-03T05:08:02.455Z,78.87
2023-04-03T05:10:31.705Z,78.40
2023-04-03T05:12:59.820Z,78.09
2023-04-03T05:15:28.791Z,78.13
2023-04-03T05:17:57.061Z,78.17
2023-04-03T05:20:24.979Z,78.67
2023-04-03T05:22:53.743Z,78.38
2023-04-03T05:25:21.778Z,77.48
2023-04-03T05:27:50.131Z,77.70
2023-04-03T05:30:19.221Z,77.56
2023-04-03T05:32:48.671Z,77.47
2023-04-03T05:35:20.344Z,77.35
2023-04-03T05:37:49.812Z,77.46
2023-04-03T05:40:19.474Z,77.73
2023-04-03T05:42:49.065Z,77.80
2023-04-03T05:45:17.764Z,76.56
2023-04-03T05:47:45.855Z,76.54
2023-04-03T05:50:14.319Z,76.47
2023-04-03T05:52:47.118Z,76.71
2023-04-03T05:55:16.686Z,76.17
2023-04-03T05:57:44.725Z,76.43
2023-04-03T06:00:16.805Z,76.12
2023-04-03T06:02:48.305Z,76.09
2023-04-03T06:05:19.932Z,76.07
2023-04-03T06:07:47.884Z,75.54
2023-04-03T06:10:17.114Z,75.38
2023-04-03T06:12:45.040Z,75.57
2023-04-03T06:15:13.008Z,75.60
2023-04-03T06:17:42.567Z,74.92
2023-04-03T06:20:11.166Z,74.22
2023-04-03T06:22:39.169Z,74.12
2023-04-03T06:25:07.714Z,74.61
2023-04-03T06:27:35.863Z,74.71
2023-04-03T06:30:04.053Z,75.03
2023-04-03T06:32:32.513Z,73.71
2023-04-03T06:35:01.260Z,74.01
2023-04-03T06:37:32.357Z,73.23
2023-04-03T06:40:01.665Z,73.94
2023-04-03T06:42:29.845Z,73.89
2023-04-03T06:45:12.987Z,73.03
2023-04-03T06:47:41.010Z,73.65
2023-04-03T06:50:12.770Z,74.20
2023-04-03T06:52:41.581Z,73.94
2023-04-03T06:55:10.416Z,73.91
2023-04-03T06:57:38.624Z,73.88
2023-04-03T07:00:08.471Z,74.00
2023-04-03T07:02:36.527Z,74.29
2023-04-03T07:05:05.220Z,73.55
2023-04-03T07:07:35.255Z,73.18
2023-04-03T07:10:03.843Z,72.01
2023-04-03T07:12:31.944Z,72.27
2023-04-03T07:15:00.413Z,72.21
2023-04-03T07:17:28.752Z,72.28
2023-04-03T07:19:56.775Z,72.86
2023-04-03T07:22:25.276Z,71.97
2023-04-03T07:24:53.265Z,72.86
2023-04-03T07:27:21.203Z,72.58
2023-04-03T07:29:49.773Z,70.79
2023-04-03T07:32:18.691Z,70.63
2023-04-03T07:34:46.625Z,70.56
2023-04-03T07:37:15.972Z,70.15
2023-04-03T07:39:46.144Z,70.26
2023-04-03T07:42:14.174Z,70.03
2023-04-03T07:44:42.906Z,70.32
2023-04-03T07:47:11.264Z,71.52
2023-04-03T07:49:41.458Z,70.13
2023-04-03T07:52:10.285Z,68.93
2023-04-03T07:54:38.324Z,69.21
2023-04-03T07:57:06.392Z,68.50
2023-04-03T07:59:34.939Z,68.55
2023-04-03T08:02:03.079Z,69.10
2023-04-03T08:04:32.047Z,68.30
2023-04-03T08:07:00.625Z,66.97
2023-04-03T08:09:28.601Z,68.39
2023-04-03T08:11:56.531Z,68.35
2023-04-03T08:14:25.174Z,68.63
2023-04-03T08:16:53.083Z,68.66
2023-04-03T08:21:52.552Z,68.35
2023-04-03T08:24:20.557Z,68.03
2023-04-03T08:26:48.458Z,65.78
2023-04-03T08:29:17.066Z,66.52
2023-04-03T08:31:45.852Z,65.26
2023-04-03T08:34:15.714Z,63.44
2023-04-03T08:36:44.322Z,62.81
2023-04-03T08:39:12.849Z,61.90
2023-04-03T08:41:43.679Z,62.48
2023-04-03T08:44:19.613Z,64.91
2023-04-03T08:47:16.608Z,65.30
2023-04-03T08:50:19.833Z,65.08
2023-04-03T08:52:56.899Z,66.31
2023-04-03T08:55:52.442Z,63.74
2023-04-03T08:58:23.626Z,63.19
2023-04-03T09:01:00.388Z,62.16
2023-04-03T09:03:35.211Z,63.78
2023-04-03T09:06:12.289Z,63.12
2023-04-03T09:09:31.426Z,62.14
2023-04-03T09:12:27.839Z,62.00
2023-04-03T09:15:20.042Z,62.83
2023-04-03T09:17:53.126Z,62.56
2023-04-03T09:20:26.919Z,62.88
2023-04-03T09:22:55.505Z,61.58
2023-04-03T09:25:34.353Z,62.36
2023-04-03T09:28:03.960Z,63.92
2023-04-03T09:30:31.982Z,61.59
2023-04-03T09:32:59.887Z,60.74
2023-04-03T09:35:40.618Z,60.44
2023-04-03T09:38:23.233Z,62.14
2023-04-03T09:41:05.346Z,61.02
2023-04-03T09:43:35.643Z,58.88
2023-04-03T09:46:27.801Z,59.85
2023-04-03T09:49:08.905Z,56.47
2023-04-03T09:51:38.252Z,56.99
2023-04-03T09:54:27.528Z,57.94
2023-04-03T09:56:59.033Z,57.76
2023-04-03T09:59:27.416Z,60.63
2023-04-03T10:02:32.021Z,60.04
2023-04-03T10:05:09.601Z,58.96
2023-04-03T10:07:40.165Z,58.10
2023-04-03T10:10:27.212Z,57.97
2023-04-03T10:13:20.150Z,59.51
2023-04-03T10:16:02.723Z,61.14
2023-04-03T10:18:34.350Z,60.33
2023-04-03T10:21:17.441Z,57.78
2023-04-03T10:23:57.043Z,57.51
2023-04-03T10:26:46.304Z,58.21
2023-04-03T10:29:17.444Z,59.06
2023-04-03T10:32:22.562Z,58.33
2023-04-03T10:35:06.003Z,58.99
2023-04-03T10:37:58.953Z,56.94
2023-04-03T10:40:49.052Z,57.47
2023-04-03T10:43:30.425Z,57.84
2023-04-03T10:46:18.057Z,58.07
2023-04-03T10:49:23.684Z,57.87
2023-04-03T10:52:02.039Z,59.07
2023-04-03T10:54:39.071Z,58.36
2023-04-03T10:57:12.965Z,57.08
2023-04-03T11:00:13.585Z,55.66
2023-04-03T11:02:56.680Z,56.85
2023-04-03T11:05:49.120Z,53.93
2023-04-03T11:08:43.636Z,57.85
2023-04-03T11:11:29.002Z,56.43
2023-04-03T11:14:06.796Z,57.79
2023-04-03T11:16:51.000Z,56.72
2023-04-03T11:19:28.126Z,55.76
2023-04-03T11:22:02.185Z,56.65
2023-04-03T11:24:34.835Z,55.32
2023-04-03T11:27:06.499Z,55.11
2023-04-03T11:29:39.412Z,53.59
2023-04-03T11:32:34.513Z,55.58
2023-04-03T11:35:06.260Z,55.74
2023-04-03T11:38:02.918Z,53.28
2023-04-03T11:40:35.866Z,54.76
2023-04-03T11:43:21.753Z,55.98
2023-04-03T11:45:50.792Z,57.07
2023-04-03T11:48:24.567Z,54.37
2023-04-03T11:50:53.389Z,53.13
2023-04-03T11:53:33.393Z,53.26
2023-04-03T11:56:24.259Z,54.38
2023-04-03T11:59:14.773Z,55.76
2023-04-03T12:01:59.567Z,56.88
2023-04-03T12:04:30.253Z,54.07
2023-04-03T12:07:13.728Z,55.19
2023-04-03T12:09:41.662Z,55.61
2023-04-03T12:12:28.253Z,54.52
2023-04-03T12:14:56.527Z,54.64
2023-04-03T12:17:28.601Z,54.49
2023-04-03T12:19:57.118Z,52.92
2023-04-03T12:22:25.237Z,53.57
2023-04-03T12:24:54.234Z,51.51
2023-04-03T12:27:27.330Z,51.60
2023-04-03T12:30:02.892Z,50.22
2023-04-03T12:33:26.818Z,51.99
2023-04-03T12:36:06.921Z,52.33
2023-04-03T12:38:47.200Z,52.04
2023-04-03T12:41:29.875Z,51.81
2023-04-03T12:44:56.895Z,51.19
2023-04-03T12:47:34.260Z,53.35
2023-04-03T12:50:05.312Z,53.40
2023-04-03T12:52:39.177Z,51.56
2023-04-03T12:55:18.911Z,52.57
2023-04-03T12:57:47.695Z,50.82
2023-04-03T13:00:34.453Z,51.16
2023-04-03T13:03:05.338Z,49.92
2023-04-03T13:05:37.225Z,48.75
2023-04-03T13:08:11.439Z,50.60
2023-04-03T13:10:55.644Z,49.59
2023-04-03T13:13:26.820Z,49.26
2023-04-03T13:15:56.310Z,49.54
2023-04-03T13:18:33.407Z,51.50
2023-04-03T13:21:09.234Z,52.39
2023-04-03T13:23:41.634Z,50.96
2023-04-03T13:26:11.330Z,51.18
2023-04-03T13:28:41.756Z,49.51
2023-04-03T13:31:40.201Z,50.52
2023-04-03T13:34:11.856Z,50.86
2023-04-03T13:36:47.458Z,50.99
2023-04-03T13:39:15.804Z,50.05
2023-04-03T13:41:47.806Z,50.79
2023-04-03T13:44:28.692Z,50.32
2023-04-03T13:47:15.686Z,49.36
2023-04-03T13:50:01.272Z,48.52
2023-04-03T13:52:40.745Z,50.63
2023-04-03T13:55:26.753Z,49.68
2023-04-03T13:58:21.114Z,49.02
2023-04-03T14:00:51.882Z,50.82
2023-04-03T14:04:00.327Z,50.92
2023-04-03T14:06:30.168Z,50.34
2023-04-03T14:09:00.698Z,50.54
2023-04-03T14:11:31.292Z,50.42
2023-04-03T14:14:03.245Z,49.79
2023-04-03T14:16:38.312Z,50.87
2023-04-03T14:19:06.352Z,49.81
2023-04-03T14:21:34.685Z,50.52
2023-04-03T14:24:02.765Z,49.60
2023-04-03T14:26:31.848Z,48.89
2023-04-03T14:28:59.875Z,50.32
2023-04-03T14:31:27.958Z,49.66
2023-04-03T14:33:56.310Z,50.39
2023-04-03T14:36:28.202Z,50.77
2023-04-03T14:38:57.598Z,50.51
2023-04-03T14:41:28.685Z,50.18
2023-04-03T14:43:57.809Z,51.31
2023-04-03T14:46:48.103Z,51.01
2023-04-03T14:49:26.377Z,51.02
2023-04-03T14:51:55.153Z,51.63
2023-04-03T14:54:29.046Z,50.33
2023-04-03T14:57:00.705Z,51.25
2023-04-03T14:59:30.534Z,51.01
2023-04-03T15:01:58.893Z,51.57
2023-04-03T15:04:27.346Z,51.49
2023-04-03T15:06:55.430Z,51.26
2023-04-03T15:09:28.691Z,51.63
2023-04-03T15:11:56.810Z,50.25
2023-04-03T15:14:36.361Z,50.46
2023-04-03T15:17:07.534Z,50.73
2023-04-03T15:19:40.217Z,52.21
2023-04-03T15:22:10.204Z,50.50
2023-04-03T15:24:38.232Z,51.32
2023-04-03T15:27:06.189Z,51.32
2023-04-03T15:29:34.362Z,52.39
2023-04-03T15:32:02.550Z,52.79
2023-04-03T15:34:30.745Z,51.44
2023-04-03T15:36:59.209Z,50.93
2023-04-03T15:39:27.485Z,50.37
2023-04-03T15:41:56.814Z,51.23
2023-04-03T15:44:25.228Z,51.29
2023-04-03T15:46:53.401Z,51.99
2023-04-03T15:49:24.118Z,52.18
2023-04-03T15:51:52.295Z,52.33
2023-04-03T15:54:20.954Z,52.26
2023-04-03T15:56:50.386Z,52.53
2023-04-03T15:59:18.906Z,52.31
2023-04-03T16:01:47.349Z,52.18
2023-04-03T16:04:17.489Z,51.74
2023-04-03T16:06:46.969Z,51.94
2023-04-03T16:09:14.989Z,52.00
2023-04-03T16:11:46.394Z,53.00
2023-04-03T16:14:14.504Z,52.75
2023-04-03T16:16:42.528Z,52.71
2023-04-03T16:19:10.739Z,52.90
2023-04-03T16:21:38.832Z,53.80
2023-04-03T16:24:07.283Z,54.25
2023-04-03T16:26:36.625Z,53.94
2023-04-03T16:29:04.961Z,53.26
2023-04-03T16:31:34.450Z,53.51
2023-04-03T16:34:04.255Z,53.85
2023-04-03T16:36:32.568Z,54.62
2023-04-03T16:39:00.797Z,54.02
2023-04-03T16:41:28.825Z,54.28
2023-04-03T16:43:56.934Z,53.94
2023-04-03T16:46:24.992Z,54.15
2023-04-03T16:48:52.999Z,52.99
2023-04-03T16:51:21.535Z,53.27
2023-04-03T16:53:49.602Z,52.76
2023-04-03T16:56:21.167Z,52.98
2023-04-03T16:58:49.362Z,53.86
2023-04-03T17:01:24.490Z,54.39
2023-04-03T17:03:52.761Z,54.34
2023-04-03T17:06:24.654Z,54.21
2023-04-03T17:08:53.362Z,54.90
2023-04-03T17:14:07.385Z,55.67
2023-04-03T17:16:38.208Z,55.71
2023-04-03T17:19:11.530Z,55.84
2023-04-03T17:21:43.942Z,55.63
2023-04-03T17:24:33.433Z,56.00
2023-04-03T17:27:01.503Z,55.71
2023-04-03T17:29:29.808Z,55.95
2023-04-03T17:31:57.899Z,55.90
2023-04-03T17:34:26.385Z,55.61
2023-04-03T17:36:54.336Z,55.59
2023-04-03T17:39:22.445Z,55.45
2023-04-03T17:41:50.737Z,55.86
2023-04-03T17:44:18.707Z,55.54
2023-04-03T17:46:50.563Z,55.88
2023-04-03T17:49:20.889Z,56.07
2023-04-03T17:51:49.025Z,56.62
2023-04-03T17:54:17.823Z,56.81
2023-04-03T17:56:49.944Z,56.81
2023-04-03T17:59:20.349Z,56.90
2023-04-03T18:01:48.829Z,56.84
2023-04-03T18:04:17.319Z,56.87
2023-04-03T18:06:51.461Z,56.85
2023-04-03T18:09:27.564Z,57.05
2023-04-03T18:11:58.099Z,57.13
2023-04-03T18:14:28.136Z,56.86
2023-04-03T18:16:59.340Z,56.88
2023-04-03T18:19:30.584Z,57.09
2023-04-03T18:22:03.516Z,56.91
2023-04-03T18:24:34.169Z,57.03
2023-04-03T18:27:12.214Z,57.26
2023-04-03T18:29:42.468Z,57.61
2023-04-03T18:32:14.491Z,57.47
2023-04-03T18:34:42.964Z,57.68
2023-04-03T18:37:10.934Z,57.86
2023-04-03T18:39:39.143Z,57.78
2023-04-03T18:42:11.636Z,58.07
2023-04-03T18:44:41.960Z,58.25
2023-04-03T18:47:10.539Z,58.46
2023-04-03T18:49:43.325Z,58.25
2023-04-03T18:52:14.171Z,57.76
2023-04-03T18:54:43.040Z,57.72
2023-04-03T18:57:11.120Z,58.08
2023-04-03T18:59:45.695Z,58.18
2023-04-03T19:02:18.907Z,58.45
2023-04-03T19:04:47.961Z,58.75
2023-04-03T19:07:17.013Z,58.61
2023-04-03T19:09:45.470Z,58.93
2023-04-03T19:12:14.024Z,59.06
2023-04-03T19:14:42.160Z,59.17
2023-04-03T19:17:10.457Z,59.39
2023-04-03T19:19:38.901Z,59.33
2023-04-03T19:22:07.863Z,59.43
2023-04-03T19:24:36.422Z,59.80
2023-04-03T19:27:04.624Z,59.76
2023-04-03T19:29:32.837Z,60.12
2023-04-03T19:32:00.972Z,59.99
2023-04-03T19:34:29.276Z,60.30
2023-04-03T19:36:57.217Z,60.29
2023-04-03T19:39:25.410Z,60.06
2023-04-03T19:41:53.532Z,59.92
2023-04-03T19:44:22.447Z,60.03
2023-04-03T19:46:51.715Z,60.36
2023-04-03T19:49:20.631Z,60.57
2023-04-03T19:51:51.079Z,60.45
2023-04-03T19:54:20.170Z,60.49
2023-04-03T19:56:48.423Z,60.57
2023-04-03T19:59:17.646Z,60.59
2023-04-03T20:01:49.551Z,61.04
2023-04-03T20:04:17.853Z,61.09
2023-04-03T20:06:46.816Z,61.30
2023-04-03T20:09:14.930Z,61.71
2023-04-03T20:11:43.075Z,61.74
2023-04-03T20:14:14.836Z,61.81
2023-04-03T20:16:47.671Z,62.37
2023-04-03T20:19:16.921Z,62.19
2023-04-03T20:21:45.709Z,62.27
2023-04-03T20:24:16.339Z,62.41
2023-04-03T20:26:47.366Z,62.55
2023-04-03T20:29:17.260Z,62.63
2023-04-03T20:31:46.859Z,62.68
2023-04-03T20:34:16.131Z,62.59
2023-04-03T20:36:49.128Z,62.47
2023-04-03T20:39:19.522Z,62.72
2023-04-03T20:41:47.673Z,62.39
2023-04-03T20:44:17.914Z,62.64
2023-04-03T20:46:52.972Z,62.83
2023-04-03T20:49:23.139Z,62.52
2023-04-03T20:51:52.724Z,62.31
2023-04-03T20:54:20.821Z,61.86
2023-04-03T20:56:50.239Z,62.09
2023-04-03T20:59:18.967Z,62.08
2023-04-03T21:01:48.143Z,61.78
2023-04-03T21:04:22.223Z,62.11
2023-04-03T21:07:28.003Z,62.17
2023-04-03T21:10:34.395Z,61.93
2023-04-03T21:13:40.192Z,61.95
2023-04-03T21:16:09.035Z,62.08
2023-04-03T21:18:42.677Z,62.25
2023-04-03T21:21:23.435Z,62.44
2023-04-03T21:23:52.791Z,62.27
2023-04-03T21:26:22.432Z,62.29
2023-04-03T21:28:52.031Z,62.26
2023-04-03T21:31:23.636Z,62.46
2023-04-03T21:33:51.704Z,62.73
2023-04-03T21:36:19.820Z,62.76
2023-04-03T21:38:48.218Z,63.10
2023-04-03T21:41:16.406Z,63.01
2023-04-03T21:43:46.484Z,62.85
2023-04-03T21:46:14.489Z,63.05
2023-04-03T21:48:42.553Z,62.76
2023-04-03T21:51:11.292Z,62.92
2023-04-03T21:53:40.139Z,63.26
2023-04-03T21:56:08.499Z,63.53
2023-04-03T21:58:36.995Z,63.53
2023-04-03T22:01:14.684Z,63.77
2023-04-03T22:03:44.755Z,63.72
2023-04-03T22:06:14.884Z,63.68
2023-04-03T22:08:43.587Z,63.66
2023-04-03T22:11:14.856Z,63.81
2023-04-03T22:13:43.871Z,63.83
2023-04-03T22:16:13.077Z,64.04
2023-04-03T22:18:41.237Z,64.07
2023-04-03T22:21:09.545Z,64.28
2023-04-03T22:23:38.129Z,64.37
2023-04-03T22:26:11.521Z,64.22
2023-04-03T22:28:41.707Z,64.46
2023-04-03T22:31:16.641Z,64.81
2023-04-03T22:33:46.061Z,64.53
2023-04-03T22:36:14.488Z,64.64
2023-04-03T22:38:46.988Z,64.81
2023-04-03T22:41:15.027Z,64.73
2023-04-03T22:43:43.003Z,64.79
2023-04-03T22:46:11.083Z,64.82
2023-04-03T22:48:43.169Z,65.34
2023-04-03T22:51:12.773Z,65.31
2023-04-03T22:53:40.827Z,65.15
2023-04-03T22:56:08.986Z,65.22
2023-04-03T22:58:37.844Z,65.24
2023-04-03T23:01:11.478Z,65.30
2023-04-03T23:03:41.850Z,65.50
2023-04-03T23:06:10.594Z,65.51
2023-04-03T23:08:39.140Z,65.67
2023-04-03T23:11:07.845Z,65.57
2023-04-03T23:13:36.189Z,65.84
2023-04-03T23:16:05.025Z,65.96
2023-04-03T23:18:33.840Z,66.22
2023-04-03T23:21:04.143Z,65.93
2023-04-03T23:23:32.795Z,66.15
2023-04-03T23:26:02.339Z,66.41
2023-04-03T23:28:30.754Z,66.29
2023-04-03T23:31:02.851Z,66.00
2023-04-03T23:33:32.280Z,66.19
2023-04-03T23:36:06.788Z,66.50
2023-04-03T23:38:35.510Z,66.76
2023-04-03T23:41:03.462Z,66.85
2023-04-03T23:43:32.167Z,66.87
2023-04-03T23:46:00.514Z,67.18
2023-04-03T23:48:28.451Z,67.17
2023-04-03T23:50:56.944Z,67.41
2023-04-03T23:53:25.118Z,67.37
2023-04-03T23:55:53.066Z,67.34
2023-04-03T23:58:21.267Z,67.49
